Time;durP1;ratioP1;P1;durP2;ratioP2;P2;SDS_P1;SDS_P2;PMS_P1;PMS_P2;Temp;Humidity;BMP_temperature;BMP_pressure;BME280_temperature;BME280_humidity;BME280_pressure;Samples;Min_cycle;Max_cycle;Signal;HPM_P1;HPM_P2
2023/02/19 00:01:42;;;;;;;4.93;3.22;;;;;;;;;;5051081;28;20152;-73
2023/02/19 00:04:11;;;;;;;3.92;2.95;;;;;;;;;;5051419;28;20391;-71
2023/02/19 00:06:37;;;;;;;5.45;3.67;;;;;;;;;;5051076;28;20021;-72
2023/02/19 00:09:03;;;;;;;8.48;3.33;;;;;;;;;;5050347;28;20067;-71
2023/02/19 00:11:31;;;;;;;5.47;3.05;;;;;;;;;;5051413;28;20421;-73
2023/02/19 00:13:57;;;;;;;5.10;2.85;;;;;;;;;;5051192;28;20028;-72
2023/02/19 00:16:28;;;;;;;4.95;3.13;;;;;;;;;;5051303;28;20075;-73
2023/02/19 00:18:54;;;;;;;6.63;3.10;;;;;;;;;;5050458;28;20021;-73
2023/02/19 00:21:21;;;;;;;4.68;2.60;;;;;;;;;;5051008;28;20577;-72
2023/02/19 00:23:50;;;;;;;5.63;2.83;;;;;;;;;;5048366;28;20081;-73
2023/02/19 00:26:16;;;;;;;3.67;2.47;;;;;;;;;;5051053;28;20028;-72
2023/02/19 00:28:43;;;;;;;6.30;2.53;;;;;;;;;;5050201;28;20025;-73
2023/02/19 00:31:12;;;;;;;5.25;3.13;;;;;;;;;;5050743;28;20530;-73
2023/02/19 00:33:38;;;;;;;5.80;3.42;;;;;;;;;;5051098;28;20047;-71
2023/02/19 00:36:04;;;;;;;4.25;2.80;;;;;;;;;;5051043;28;20166;-72
2023/02/19 00:38:31;;;;;;;5.53;3.22;;;;;;;;;;5048895;28;20029;-71
2023/02/19 00:41:00;;;;;;;5.38;2.90;;;;;;;;;;5050689;28;20029;-71
2023/02/19 00:43:26;;;;;;;4.97;3.17;;;;;;;;;;5050663;28;20017;-71
2023/02/19 00:45:52;;;;;;;4.45;3.03;;;;;;;;;;5050721;28;20399;-71
2023/02/19 00:48:18;;;;;;;5.25;3.22;;;;;;;;;;5049960;28;20036;-72
2023/02/19 00:50:44;;;;;;;5.32;3.08;;;;;;;;;;5050651;28;20025;-72
2023/02/19 00:53:10;;;;;;;10.48;3.65;;;;;;;;;;5050839;28;20108;-71
2023/02/19 00:55:36;;;;;;;5.07;2.92;;;;;;;;;;5053495;28;20025;-71
2023/02/19 00:58:02;;;;;;;4.57;2.85;;;;;;;;;;5053582;28;20063;-71
2023/02/19 01:00:28;;;;;;;5.07;3.25;;;;;;;;;;5049080;28;20391;-73
2023/02/19 01:02:54;;;;;;;11.68;3.72;;;;;;;;;;5081933;22;20051;-79
2023/02/19 01:05:20;;;;;;;4.68;2.85;;;;;;;;;;5075384;28;20033;-80
2023/02/19 01:07:46;;;;;;;5.55;2.92;;;;;;;;;;5074860;28;20021;-79
2023/02/19 01:10:12;;;;;;;4.75;2.80;;;;;;;;;;5075314;28;20379;-79
2023/02/19 01:12:38;;;;;;;6.75;3.65;;;;;;;;;;5074667;28;20052;-76
2023/02/19 01:15:04;;;;;;;6.35;2.75;;;;;;;;;;5074479;28;20017;-79
2023/02/19 01:17:30;;;;;;;5.07;2.42;;;;;;;;;;5070600;28;20107;-77
2023/02/19 01:19:56;;;;;;;5.80;2.92;;;;;;;;;;5072862;28;20107;-78
2023/02/19 01:22:22;;;;;;;5.07;3.08;;;;;;;;;;5073875;28;20036;-77
2023/02/19 01:24:48;;;;;;;6.18;2.97;;;;;;;;;;5073837;28;20036;-78
2023/02/19 01:27:14;;;;;;;5.13;2.85;;;;;;;;;;5072280;28;20032;-77
2023/02/19 01:29:41;;;;;;;4.05;3.00;;;;;;;;;;5073882;28;20394;-78
2023/02/19 01:32:07;;;;;;;3.50;2.70;;;;;;;;;;5073758;28;20021;-78
2023/02/19 01:34:33;;;;;;;5.13;3.13;;;;;;;;;;5073932;28;20024;-76
2023/02/19 01:36:59;;;;;;;4.53;3.10;;;;;;;;;;5073231;28;20497;-74
2023/02/19 01:39:25;;;;;;;4.70;2.97;;;;;;;;;;5073416;28;20177;-78
2023/02/19 01:41:51;;;;;;;5.65;3.58;;;;;;;;;;5053545;28;20188;-78
2023/02/19 01:44:18;;;;;;;9.35;3.75;;;;;;;;;;5053695;28;20164;-78
2023/02/19 01:46:50;;;;;;;5.63;3.95;;;;;;;;;;5053890;28;20100;-77
2023/02/19 01:49:29;;;;;;;6.53;3.83;;;;;;;;;;5052605;28;20029;-78
2023/02/19 01:51:55;;;;;;;7.53;4.00;;;;;;;;;;5050811;28;20024;-75
2023/02/19 01:54:22;;;;;;;4.97;3.97;;;;;;;;;;5053669;28;20464;-78
2023/02/19 01:56:49;;;;;;;7.80;4.15;;;;;;;;;;5053279;28;20075;-78
2023/02/19 01:59:16;;;;;;;5.60;3.47;;;;;;;;;;5052521;28;20021;-76
2023/02/19 02:01:42;;;;;;;7.35;3.63;;;;;;;;;;5053224;28;20095;-78
2023/02/19 02:04:09;;;;;;;5.13;3.55;;;;;;;;;;5050078;28;20023;-78
2023/02/19 02:06:44;;;;;;;7.30;3.53;;;;;;;;;;5052995;28;20021;-78
2023/02/19 02:11:55;;;;;;;5.78;2.90;;;;;;;;;;5053391;28;20032;-78
2023/02/19 02:14:23;;;;;;;6.00;3.55;;;;;;;;;;5053060;28;20021;-76
2023/02/19 02:17:08;;;;;;;7.03;3.20;;;;;;;;;;5051623;28;20491;-78
2023/02/19 02:20:01;;;;;;;7.75;3.50;;;;;;;;;;5052942;28;20025;-77
2023/02/19 02:22:51;;;;;;;7.90;3.78;;;;;;;;;;5052728;28;20024;-78
2023/02/19 02:25:17;;;;;;;4.38;3.17;;;;;;;;;;5052775;28;20535;-78
2023/02/19 02:28:02;;;;;;;4.20;3.25;;;;;;;;;;5052147;28;20037;-78
2023/02/19 02:30:33;;;;;;;3.95;2.95;;;;;;;;;;5052633;28;20476;-78
2023/02/19 02:33:12;;;;;;;7.40;3.75;;;;;;;;;;5052837;28;20119;-78
2023/02/19 02:35:41;;;;;;;3.60;2.78;;;;;;;;;;5052967;28;20029;-78
2023/02/19 02:38:09;;;;;;;6.93;3.17;;;;;;;;;;5052010;28;20094;-79
2023/02/19 02:40:36;;;;;;;5.13;3.05;;;;;;;;;;5052961;28;20372;-78
2023/02/19 02:43:02;;;;;;;4.97;2.92;;;;;;;;;;5052398;28;20468;-77
2023/02/19 02:45:36;;;;;;;5.93;2.95;;;;;;;;;;5052462;28;20395;-77
2023/02/19 02:48:11;;;;;;;4.68;3.03;;;;;;;;;;5051699;28;20024;-77
2023/02/19 02:50:43;;;;;;;5.55;2.85;;;;;;;;;;5052291;28;20558;-78
2023/02/19 02:55:59;;;;;;;4.82;3.08;;;;;;;;;;5052402;28;20103;-77
2023/02/19 02:58:26;;;;;;;4.50;2.85;;;;;;;;;;5051309;28;20262;-77
2023/02/19 03:03:47;;;;;;;5.82;2.97;;;;;;;;;;5050404;28;20126;-78
2023/02/19 03:06:15;;;;;;;9.82;3.53;;;;;;;;;;5051879;28;20029;-77
2023/02/19 03:08:58;;;;;;;6.07;3.05;;;;;;;;;;5051341;28;20025;-76
2023/02/19 03:20:12;;;;;;;5.07;2.10;;;;;;;;;;5051816;28;20036;-77
2023/02/19 03:22:40;;;;;;;2.75;2.13;;;;;;;;;;5051432;28;20270;-77
2023/02/19 03:27:57;;;;;;;3.78;2.53;;;;;;;;;;5049830;28;20106;-77
2023/02/19 03:30:25;;;;;;;4.10;2.33;;;;;;;;;;5054382;28;20394;-77
2023/02/19 03:32:54;;;;;;;4.60;2.13;;;;;;;;;;5051587;28;20025;-77
2023/02/19 03:35:22;;;;;;;3.38;2.22;;;;;;;;;;5051625;28;20074;-77
2023/02/19 03:37:57;;;;;;;3.63;2.25;;;;;;;;;;5050718;28;20280;-76
2023/02/19 03:40:26;;;;;;;5.18;1.77;;;;;;;;;;5050565;28;20391;-77
2023/02/19 03:43:01;;;;;;;18.67;2.90;;;;;;;;;;5051323;28;20025;-77
2023/02/19 03:45:32;;;;;;;2.88;1.60;;;;;;;;;;5051356;28;20167;-77
2023/02/19 03:48:24;;;;;;;2.83;1.70;;;;;;;;;;5059541;28;20558;-79
2023/02/19 03:50:57;;;;;;;1.90;1.40;;;;;;;;;;5070025;28;20478;-77
2023/02/19 03:53:29;;;;;;;0.82;0.80;;;;;;;;;;5071370;28;20039;-77
2023/02/19 03:56:01;;;;;;;1.30;0.75;;;;;;;;;;5071326;28;20150;-77
2023/02/19 03:58:30;;;;;;;0.70;0.60;;;;;;;;;;5070471;28;20396;-77
2023/02/19 04:01:14;;;;;;;3.80;0.40;;;;;;;;;;5068107;28;20029;-77
2023/02/19 04:03:48;;;;;;;0.57;0.32;;;;;;;;;;5071365;28;20033;-77
2023/02/19 04:06:17;;;;;;;0.30;0.20;;;;;;;;;;5071289;28;20021;-77
2023/02/19 04:08:45;;;;;;;2.42;0.40;;;;;;;;;;5070675;28;20032;-78
2023/02/19 04:11:12;;;;;;;0.50;0.30;;;;;;;;;;5068769;28;20501;-76
2023/02/19 04:13:43;;;;;;;2.25;0.43;;;;;;;;;;5069865;28;20437;-77
2023/02/19 04:16:12;;;;;;;1.27;0.32;;;;;;;;;;5071362;28;20154;-76
2023/02/19 04:18:40;;;;;;;1.05;0.40;;;;;;;;;;5070517;28;20042;-76
2023/02/19 04:21:07;;;;;;;1.20;0.60;;;;;;;;;;5071204;28;20494;-76
2023/02/19 04:23:36;;;;;;;1.38;0.50;;;;;;;;;;5071488;28;20032;-76
2023/02/19 04:26:02;;;;;;;1.30;0.60;;;;;;;;;;5071814;28;20021;-76
2023/02/19 04:28:28;;;;;;;1.10;0.75;;;;;;;;;;5071733;28;20024;-77
2023/02/19 04:30:55;;;;;;;2.28;0.70;;;;;;;;;;5076120;28;20040;-77
2023/02/19 04:33:21;;;;;;;1.42;0.82;;;;;;;;;;5075306;28;20099;-77
2023/02/19 04:35:47;;;;;;;3.15;1.05;;;;;;;;;;5075445;28;20028;-77
2023/02/19 04:38:13;;;;;;;5.75;1.00;;;;;;;;;;5073164;28;20021;-77
2023/02/19 04:40:39;;;;;;;3.42;1.13;;;;;;;;;;5074947;28;20376;-77
2023/02/19 04:43:05;;;;;;;1.13;0.52;;;;;;;;;;5074968;28;20024;-77
2023/02/19 04:45:31;;;;;;;10.02;1.27;;;;;;;;;;5075088;28;20032;-77
2023/02/19 04:47:58;;;;;;;1.67;0.68;;;;;;;;;;5073909;28;20083;-77
2023/02/19 04:50:24;;;;;;;9.82;1.10;;;;;;;;;;5074967;28;20024;-75
2023/02/19 04:52:50;;;;;;;2.50;0.70;;;;;;;;;;5074708;28;20092;-79
2023/02/19 04:55:16;;;;;;;0.40;0.40;;;;;;;;;;5074677;28;20467;-77
2023/02/19 04:57:42;;;;;;;2.60;0.90;;;;;;;;;;5074030;28;20024;-79
2023/02/19 05:00:09;;;;;;;2.63;0.93;;;;;;;;;;5073653;28;20027;-75
2023/02/19 05:02:35;;;;;;;2.22;0.85;;;;;;;;;;5074580;28;20123;-77
2023/02/19 05:05:01;;;;;;;1.10;1.00;;;;;;;;;;5075145;28;20115;-77
2023/02/19 05:07:27;;;;;;;1.50;1.05;;;;;;;;;;5076945;28;20029;-77
2023/02/19 05:09:53;;;;;;;3.20;1.75;;;;;;;;;;5085198;28;20054;-79
2023/02/19 05:12:20;;;;;;;2.17;1.80;;;;;;;;;;5090535;28;20021;-77
2023/02/19 05:14:46;;;;;;;16.50;2.60;;;;;;;;;;5091960;28;20044;-78
2023/02/19 05:17:12;;;;;;;5.05;2.13;;;;;;;;;;5095633;28;20032;-78
2023/02/19 05:19:38;;;;;;;7.25;2.10;;;;;;;;;;5089679;28;20028;-77
2023/02/19 05:22:04;;;;;;;12.30;2.10;;;;;;;;;;5093920;28;20039;-78
2023/02/19 05:24:30;;;;;;;1.63;1.30;;;;;;;;;;5093909;28;20035;-78
2023/02/19 05:26:56;;;;;;;5.20;2.00;;;;;;;;;;5073900;28;20089;-77
2023/02/19 05:29:22;;;;;;;4.75;2.25;;;;;;;;;;5074488;28;20052;-76
2023/02/19 05:31:48;;;;;;;4.53;1.58;;;;;;;;;;5075146;28;20553;-76
2023/02/19 05:34:14;;;;;;;5.18;1.90;;;;;;;;;;5078786;28;20017;-75
2023/02/19 05:36:40;;;;;;;1.58;1.30;;;;;;;;;;5080956;28;20043;-75
2023/02/19 05:39:08;;;;;;;1.80;1.00;;;;;;;;;;5078684;28;20059;-75
2023/02/19 05:41:34;;;;;;;2.35;0.80;;;;;;;;;;5075657;28;20107;-77
2023/02/19 05:44:00;;;;;;;1.90;0.80;;;;;;;;;;5077099;28;20024;-76
2023/02/19 05:46:28;;;;;;;2.50;0.73;;;;;;;;;;5074654;28;20056;-76
2023/02/19 05:48:54;;;;;;;24.60;1.98;;;;;;;;;;5073978;28;20024;-76
2023/02/19 05:51:22;;;;;;;2.35;1.40;;;;;;;;;;5074427;28;20025;-76
2023/02/19 05:53:48;;;;;;;4.20;2.63;;;;;;;;;;5073868;28;20024;-78
2023/02/19 05:56:34;;;;;;;3.22;2.30;;;;;;;;;;5072343;28;20047;-77
2023/02/19 05:59:08;;;;;;;6.50;2.45;;;;;;;;;;5072264;28;20021;-76
2023/02/19 06:01:35;;;;;;;3.88;2.30;;;;;;;;;;5073237;28;20036;-76
2023/02/19 06:04:01;;;;;;;4.95;2.40;;;;;;;;;;5071988;28;20075;-76
2023/02/19 06:06:27;;;;;;;2.65;2.30;;;;;;;;;;5073649;28;20029;-77
2023/02/19 06:08:53;;;;;;;2.58;1.92;;;;;;;;;;5072445;28;20035;-76
2023/02/19 06:11:19;;;;;;;2.90;1.40;;;;;;;;;;5070685;28;20115;-76
2023/02/19 06:13:46;;;;;;;1.65;1.20;;;;;;;;;;5063606;28;20025;-76
2023/02/19 06:16:12;;;;;;;1.70;1.48;;;;;;;;;;5053000;28;20027;-76
2023/02/19 06:18:41;;;;;;;1.48;1.25;;;;;;;;;;5051996;28;20041;-76
2023/02/19 06:21:08;;;;;;;0.93;0.80;;;;;;;;;;5052917;28;20032;-76
2023/02/19 06:23:34;;;;;;;2.28;1.08;;;;;;;;;;5052829;28;20510;-76
2023/02/19 06:26:06;;;;;;;0.40;0.40;;;;;;;;;;5052877;28;20036;-76
2023/02/19 06:28:32;;;;;;;0.52;0.52;;;;;;;;;;5058803;28;20032;-76
2023/02/19 06:30:58;;;;;;;0.50;0.50;;;;;;;;;;5070903;28;20088;-76
2023/02/19 06:33:26;;;;;;;0.63;0.47;;;;;;;;;;5071396;28;20031;-76
2023/02/19 06:35:52;;;;;;;0.60;0.30;;;;;;;;;;5070972;28;20020;-76
2023/02/19 06:38:18;;;;;;;0.32;0.30;;;;;;;;;;5070360;28;20059;-76
2023/02/19 06:40:45;;;;;;;0.90;0.45;;;;;;;;;;5072425;28;20479;-76
2023/02/19 06:43:11;;;;;;;0.73;0.60;;;;;;;;;;5071035;28;20028;-76
2023/02/19 06:45:37;;;;;;;0.57;0.40;;;;;;;;;;5072315;28;20028;-76
2023/02/19 06:48:04;;;;;;;0.50;0.50;;;;;;;;;;5071530;28;20554;-76
2023/02/19 06:50:30;;;;;;;1.40;0.40;;;;;;;;;;5072587;28;20420;-76
2023/02/19 06:52:56;;;;;;;0.60;0.57;;;;;;;;;;5069763;28;20481;-76
2023/02/19 06:55:22;;;;;;;2.42;0.60;;;;;;;;;;5070778;28;20028;-77
2023/02/19 06:57:48;;;;;;;1.35;0.82;;;;;;;;;;5071356;28;20466;-75
2023/02/19 07:00:14;;;;;;;0.98;0.82;;;;;;;;;;5072138;28;20074;-76
2023/02/19 07:02:40;;;;;;;1.88;0.80;;;;;;;;;;5077691;22;20045;-71
2023/02/19 07:05:06;;;;;;;1.73;0.80;;;;;;;;;;5052349;28;20048;-73
2023/02/19 07:07:32;;;;;;;1.17;1.02;;;;;;;;;;5051264;28;20079;-73
2023/02/19 07:09:58;;;;;;;1.73;0.90;;;;;;;;;;5051520;28;20033;-72
2023/02/19 07:12:24;;;;;;;1.05;0.70;;;;;;;;;;5051886;28;20031;-72
2023/02/19 07:14:50;;;;;;;0.80;0.80;;;;;;;;;;5052040;28;20021;-70
2023/02/19 07:17:16;;;;;;;2.20;1.35;;;;;;;;;;5051176;28;20467;-72
2023/02/19 07:19:42;;;;;;;3.53;1.38;;;;;;;;;;5051891;28;20025;-72
2023/02/19 07:22:08;;;;;;;1.55;1.05;;;;;;;;;;5052108;28;20070;-71
2023/02/19 07:24:34;;;;;;;1.75;1.27;;;;;;;;;;5051468;28;20025;-70
2023/02/19 07:27:00;;;;;;;4.90;1.52;;;;;;;;;;5051154;28;20460;-71
2023/02/19 07:29:26;;;;;;;2.38;1.30;;;;;;;;;;5051225;28;20025;-72
2023/02/19 07:31:52;;;;;;;6.30;1.80;;;;;;;;;;5051429;28;20033;-72
2023/02/19 07:34:18;;;;;;;7.50;1.58;;;;;;;;;;5051411;28;20033;-72
2023/02/19 07:36:44;;;;;;;1.85;1.40;;;;;;;;;;5051483;28;20032;-72
2023/02/19 07:39:12;;;;;;;1.27;1.17;;;;;;;;;;5050959;28;20025;-72
2023/02/19 07:41:38;;;;;;;3.05;2.30;;;;;;;;;;5051776;28;20170;-72
2023/02/19 07:44:04;;;;;;;1.90;1.80;;;;;;;;;;5051613;28;20040;-73
2023/02/19 07:46:31;;;;;;;1.70;1.20;;;;;;;;;;5051558;28;20024;-72
2023/02/19 07:48:57;;;;;;;1.52;1.02;;;;;;;;;;5050395;28;20434;-71
2023/02/19 07:51:23;;;;;;;1.98;0.52;;;;;;;;;;5051420;28;20035;-71
2023/02/19 07:53:49;;;;;;;0.57;0.55;;;;;;;;;;5051063;28;20025;-71
2023/02/19 07:56:15;;;;;;;0.60;0.60;;;;;;;;;;5051455;28;20045;-72
2023/02/19 07:58:41;;;;;;;0.80;0.80;;;;;;;;;;5050566;28;20021;-71
2023/02/19 08:01:13;;;;;;;1.83;0.85;;;;;;;;;;5051265;28;20458;-72
2023/02/19 08:03:39;;;;;;;1.25;1.00;;;;;;;;;;5050510;28;20039;-72
2023/02/19 08:06:05;;;;;;;2.20;1.33;;;;;;;;;;5033177;28;20056;-73
2023/02/19 08:08:32;;;;;;;2.92;1.40;;;;;;;;;;5050645;28;20104;-72
2023/02/19 08:13:48;;;;;;;0.98;0.98;;;;;;;;;;5050984;28;20110;-72
2023/02/19 08:16:18;;;;;;;1.08;1.05;;;;;;;;;;5051084;28;20032;-71
2023/02/19 08:18:44;;;;;;;1.30;1.20;;;;;;;;;;5032472;28;20021;-71
2023/02/19 08:21:10;;;;;;;2.20;2.00;;;;;;;;;;5050969;28;20037;-72
2023/02/19 08:23:36;;;;;;;1.92;1.50;;;;;;;;;;5050957;28;20033;-73
2023/02/19 08:26:03;;;;;;;2.13;1.15;;;;;;;;;;5051166;28;20138;-72
2023/02/19 08:28:29;;;;;;;1.55;1.23;;;;;;;;;;5050148;28;20025;-72
2023/02/19 08:30:58;;;;;;;1.38;1.27;;;;;;;;;;5050831;28;20025;-73
2023/02/19 08:33:24;;;;;;;1.30;1.20;;;;;;;;;;5051408;28;20025;-72
2023/02/19 08:35:53;;;;;;;1.38;1.20;;;;;;;;;;5051275;28;20065;-72
2023/02/19 08:38:19;;;;;;;1.80;1.08;;;;;;;;;;5050006;28;20019;-72
2023/02/19 08:40:45;;;;;;;1.25;1.00;;;;;;;;;;5052324;28;20048;-72
2023/02/19 08:43:12;;;;;;;2.00;1.80;;;;;;;;;;5052074;28;20037;-72
2023/02/19 08:45:39;;;;;;;2.88;2.38;;;;;;;;;;5052744;28;20025;-71
2023/02/19 08:48:05;;;;;;;4.85;2.60;;;;;;;;;;5049869;28;20028;-72
2023/02/19 08:50:31;;;;;;;2.13;1.98;;;;;;;;;;5050486;28;20021;-73
2023/02/19 08:53:01;;;;;;;3.10;1.85;;;;;;;;;;5050854;28;20032;-73
2023/02/19 08:55:27;;;;;;;3.03;1.63;;;;;;;;;;5050726;28;20024;-72
2023/02/19 08:57:53;;;;;;;2.40;1.63;;;;;;;;;;5049716;28;20459;-72
2023/02/19 09:00:20;;;;;;;2.63;2.05;;;;;;;;;;5050357;28;20075;-72
2023/02/19 09:02:46;;;;;;;2.80;1.95;;;;;;;;;;5050464;28;20043;-73
2023/02/19 09:05:12;;;;;;;4.55;2.72;;;;;;;;;;5050355;28;20033;-72
2023/02/19 09:07:38;;;;;;;3.72;2.67;;;;;;;;;;5031860;28;20517;-71
2023/02/19 09:10:05;;;;;;;4.10;3.00;;;;;;;;;;5050584;28;20158;-72
2023/02/19 09:12:32;;;;;;;3.40;2.97;;;;;;;;;;5050359;28;20390;-71
2023/02/19 09:14:58;;;;;;;3.50;3.20;;;;;;;;;;5050381;28;20043;-72
2023/02/19 09:17:24;;;;;;;4.53;4.00;;;;;;;;;;5054038;28;20033;-72
2023/02/19 09:19:50;;;;;;;5.88;4.47;;;;;;;;;;5054319;28;20494;-71
2023/02/19 09:22:16;;;;;;;6.03;4.97;;;;;;;;;;5053971;28;20064;-72
2023/02/19 09:24:42;;;;;;;5.28;3.92;;;;;;;;;;5054073;28;20025;-72
2023/02/19 09:27:09;;;;;;;3.47;2.92;;;;;;;;;;5053319;28;20025;-71
2023/02/19 09:29:35;;;;;;;3.83;2.85;;;;;;;;;;5053814;28;20507;-72
2023/02/19 09:32:01;;;;;;;4.57;2.63;;;;;;;;;;5053617;28;20471;-72
2023/02/19 09:34:28;;;;;;;2.50;2.25;;;;;;;;;;5053741;28;20044;-73
2023/02/19 09:36:54;;;;;;;3.55;2.50;;;;;;;;;;5053718;28;20514;-72
2023/02/19 09:39:20;;;;;;;3.05;2.40;;;;;;;;;;5053148;28;20096;-72
2023/02/19 09:41:48;;;;;;;4.30;2.63;;;;;;;;;;5053621;28;20032;-72
2023/02/19 09:44:20;;;;;;;2.65;2.00;;;;;;;;;;5035668;28;20032;-72
2023/02/19 09:46:47;;;;;;;3.03;1.48;;;;;;;;;;5035846;28;20025;-72
2023/02/19 09:49:13;;;;;;;5.40;1.75;;;;;;;;;;5053015;28;20475;-73
2023/02/19 09:51:40;;;;;;;3.30;1.42;;;;;;;;;;5053484;28;20031;-72
2023/02/19 09:54:10;;;;;;;5.13;2.17;;;;;;;;;;5053916;28;20379;-72
2023/02/19 09:56:36;;;;;;;3.65;1.85;;;;;;;;;;5053410;28;20021;-72
2023/02/19 09:59:02;;;;;;;7.20;2.50;;;;;;;;;;5034802;28;20431;-72
2023/02/19 10:01:30;;;;;;;8.15;2.05;;;;;;;;;;5053129;28;20033;-72
2023/02/19 10:03:57;;;;;;;5.70;1.73;;;;;;;;;;5053265;28;20029;-72
2023/02/19 10:06:24;;;;;;;5.88;1.17;;;;;;;;;;5053157;28;20036;-72
2023/02/19 10:08:52;;;;;;;2.35;1.60;;;;;;;;;;5052463;28;20033;-72
2023/02/19 10:11:18;;;;;;;3.40;1.48;;;;;;;;;;5052863;28;20033;-72
2023/02/19 10:13:49;;;;;;;3.70;1.20;;;;;;;;;;5052906;28;20044;-71
2023/02/19 10:16:17;;;;;;;2.70;1.03;;;;;;;;;;5052984;28;20021;-72
2023/02/19 10:18:44;;;;;;;5.55;1.10;;;;;;;;;;5034180;28;20085;-71
2023/02/19 10:21:11;;;;;;;3.10;0.98;;;;;;;;;;5052727;28;20031;-71
2023/02/19 10:23:39;;;;;;;2.40;0.93;;;;;;;;;;5052617;28;20029;-72
2023/02/19 10:26:05;;;;;;;2.42;0.77;;;;;;;;;;5052475;28;20039;-72
2023/02/19 10:28:33;;;;;;;3.10;1.60;;;;;;;;;;5052103;28;20033;-72
2023/02/19 10:31:00;;;;;;;2.10;1.23;;;;;;;;;;5052679;28;20511;-72
2023/02/19 10:33:26;;;;;;;2.40;1.02;;;;;;;;;;5052565;28;20060;-72
2023/02/19 10:35:54;;;;;;;1.63;1.25;;;;;;;;;;5052470;28;20471;-72
2023/02/19 10:38:24;;;;;;;3.50;1.10;;;;;;;;;;5051764;28;20174;-71
2023/02/19 10:40:52;;;;;;;3.63;1.58;;;;;;;;;;5052665;28;20045;-72
2023/02/19 10:43:35;;;;;;;3.35;1.10;;;;;;;;;;5052287;28;20086;-72
2023/02/19 10:46:03;;;;;;;2.72;1.00;;;;;;;;;;5052396;28;20025;-72
2023/02/19 10:48:31;;;;;;;1.70;1.20;;;;;;;;;;5051543;28;20027;-72
2023/02/19 10:51:03;;;;;;;2.58;1.00;;;;;;;;;;5052040;28;20028;-72
2023/02/19 10:53:47;;;;;;;1.42;0.75;;;;;;;;;;5052285;28;20079;-72
2023/02/19 10:56:13;;;;;;;2.95;1.20;;;;;;;;;;5052124;28;20020;-72
2023/02/19 10:58:41;;;;;;;1.52;1.10;;;;;;;;;;5051494;28;20059;-72
2023/02/19 11:01:11;;;;;;;1.73;1.17;;;;;;;;;;5051808;28;20033;-71
2023/02/19 11:03:38;;;;;;;3.58;1.40;;;;;;;;;;5051812;28;20047;-72
2023/02/19 11:06:07;;;;;;;2.22;1.02;;;;;;;;;;5051904;28;20055;-72
2023/02/19 11:08:50;;;;;;;5.03;1.63;;;;;;;;;;5051587;28;20043;-72
2023/02/19 11:11:30;;;;;;;2.10;1.20;;;;;;;;;;5051753;28;20060;-72
2023/02/19 11:13:57;;;;;;;4.97;1.80;;;;;;;;;;5051966;28;20150;-74
2023/02/19 11:16:36;;;;;;;1.17;0.80;;;;;;;;;;5051949;28;20036;-73
2023/02/19 11:19:02;;;;;;;1.75;0.90;;;;;;;;;;5051241;28;20032;-72
2023/02/19 11:21:32;;;;;;;3.35;0.95;;;;;;;;;;5051584;28;20029;-72
2023/02/19 11:24:00;;;;;;;1.63;0.93;;;;;;;;;;5051592;28;20021;-72
2023/02/19 11:26:31;;;;;;;1.58;0.75;;;;;;;;;;5051895;28;20032;-72
2023/02/19 11:28:58;;;;;;;3.30;1.10;;;;;;;;;;5050869;28;20032;-72
2023/02/19 11:31:24;;;;;;;1.48;0.50;;;;;;;;;;5051234;28;20534;-72
2023/02/19 11:33:55;;;;;;;1.88;0.82;;;;;;;;;;5051697;28;20426;-71
2023/02/19 11:36:28;;;;;;;2.58;0.88;;;;;;;;;;5051374;28;20025;-72
2023/02/19 11:38:55;;;;;;;2.38;0.98;;;;;;;;;;5050486;28;20025;-73
2023/02/19 11:41:21;;;;;;;2.30;1.20;;;;;;;;;;5051604;28;20025;-73
2023/02/19 11:43:52;;;;;;;2.50;0.95;;;;;;;;;;5051621;28;20025;-73
2023/02/19 11:46:35;;;;;;;4.25;0.90;;;;;;;;;;5051889;28;20029;-73
2023/02/19 11:49:01;;;;;;;1.52;1.00;;;;;;;;;;5050856;28;20086;-73
2023/02/19 11:51:42;;;;;;;11.43;1.42;;;;;;;;;;5051580;28;20467;-72
2023/02/19 11:54:16;;;;;;;2.75;1.20;;;;;;;;;;5051319;28;20025;-72
2023/02/19 11:56:44;;;;;;;1.58;1.00;;;;;;;;;;5051253;28;20407;-73
2023/02/19 11:59:15;;;;;;;7.93;1.70;;;;;;;;;;5050375;28;20044;-72
2023/02/19 12:01:51;;;;;;;3.78;1.20;;;;;;;;;;5050639;28;20060;-72
2023/02/19 12:04:35;;;;;;;6.13;1.75;;;;;;;;;;5051020;28;20070;-72
2023/02/19 12:07:19;;;;;;;2.75;1.10;;;;;;;;;;5050771;28;20445;-71
2023/02/19 12:09:48;;;;;;;4.40;1.35;;;;;;;;;;5050967;28;20207;-73
2023/02/19 12:12:17;;;;;;;1.33;0.77;;;;;;;;;;5051146;28;20021;-73
2023/02/19 12:15:02;;;;;;;2.00;0.77;;;;;;;;;;5051067;28;20028;-72
2023/02/19 12:17:34;;;;;;;3.08;0.90;;;;;;;;;;5050239;28;20025;-69
2023/02/19 12:20:06;;;;;;;3.78;1.38;;;;;;;;;;5042336;28;20028;-71
2023/02/19 12:22:36;;;;;;;1.92;1.10;;;;;;;;;;5050687;28;20025;-73
2023/02/19 12:25:15;;;;;;;3.33;1.10;;;;;;;;;;5051291;28;20059;-73
2023/02/19 12:27:50;;;;;;;4.82;1.25;;;;;;;;;;5050269;28;20116;-73
2023/02/19 12:30:23;;;;;;;4.03;1.15;;;;;;;;;;5050790;28;20037;-72
2023/02/19 12:32:59;;;;;;;2.53;1.10;;;;;;;;;;5050764;28;20112;-71
2023/02/19 12:35:38;;;;;;;7.35;1.40;;;;;;;;;;5044477;28;20486;-71
2023/02/19 12:38:10;;;;;;;5.35;1.30;;;;;;;;;;5029848;28;20033;-71
2023/02/19 12:40:45;;;;;;;2.80;1.00;;;;;;;;;;5030990;28;20029;-71
2023/02/19 12:43:24;;;;;;;4.00;1.23;;;;;;;;;;5030726;28;20456;-71
2023/02/19 12:45:52;;;;;;;2.17;0.90;;;;;;;;;;5030712;28;20029;-71
2023/02/19 12:48:31;;;;;;;0.82;0.82;;;;;;;;;;5012098;28;20470;-71
2023/02/19 12:50:59;;;;;;;3.47;1.23;;;;;;;;;;5033614;28;20029;-70
2023/02/19 12:53:28;;;;;;;4.40;1.05;;;;;;;;;;5034457;28;20100;-71
2023/02/19 12:55:55;;;;;;;3.40;1.00;;;;;;;;;;5034444;28;20105;-72
2023/02/19 12:58:28;;;;;;;2.30;0.90;;;;;;;;;;5033939;28;20026;-71
2023/02/19 13:00:57;;;;;;;3.47;0.98;;;;;;;;;;5034269;28;20113;-72
2023/02/19 13:03:40;;;;;;;2.33;1.48;;;;;;;;;;5083406;22;20418;-77
2023/02/19 13:06:15;;;;;;;5.20;1.00;;;;;;;;;;5074360;28;20029;-75
2023/02/19 13:08:42;;;;;;;3.53;1.40;;;;;;;;;;5073761;28;20023;-78
2023/02/19 13:11:22;;;;;;;3.35;1.00;;;;;;;;;;5072926;28;20029;-77
2023/02/19 13:13:51;;;;;;;5.72;1.75;;;;;;;;;;5074503;28;20024;-77
2023/02/19 13:16:19;;;;;;;10.90;1.27;;;;;;;;;;5074266;28;20169;-78
2023/02/19 13:18:48;;;;;;;6.13;1.20;;;;;;;;;;5073534;28;20430;-76
2023/02/19 13:23:57;;;;;;;3.00;0.95;;;;;;;;;;5072832;28;20119;-76
2023/02/19 13:24:06;;;;;;;4.10;1.25;;;;;;;;;;5074079;28;20067;-78
2023/02/19 13:26:45;;;;;;;4.15;0.98;;;;;;;;;;5075082;28;20078;-77
2023/02/19 13:29:14;;;;;;;4.00;1.25;;;;;;;;;;5073268;28;20082;-78
2023/02/19 13:31:40;;;;;;;3.33;0.75;;;;;;;;;;5074298;28;20048;-78
2023/02/19 13:34:14;;;;;;;2.63;0.55;;;;;;;;;;5074169;28;20498;-78
2023/02/19 13:36:40;;;;;;;1.55;0.73;;;;;;;;;;5073695;28;20439;-78
2023/02/19 13:39:07;;;;;;;4.60;0.85;;;;;;;;;;5071908;28;20058;-78
2023/02/19 13:41:41;;;;;;;4.00;0.98;;;;;;;;;;5073586;28;20517;-78
2023/02/19 13:44:13;;;;;;;7.25;1.17;;;;;;;;;;5072736;28;20553;-77
2023/02/19 13:46:41;;;;;;;4.30;0.95;;;;;;;;;;5072425;28;20036;-78
2023/02/19 13:49:22;;;;;;;2.35;0.85;;;;;;;;;;5071564;28;20031;-78
2023/02/19 13:51:51;;;;;;;4.85;0.90;;;;;;;;;;5071984;28;20119;-77
2023/02/19 13:54:25;;;;;;;1.48;0.68;;;;;;;;;;5072140;28;20025;-78
2023/02/19 13:57:11;;;;;;;3.00;0.70;;;;;;;;;;5073268;28;20036;-77
2023/02/19 13:59:37;;;;;;;2.42;0.70;;;;;;;;;;5073760;28;20104;-77
2023/02/19 14:02:03;;;;;;;1.23;0.60;;;;;;;;;;5072572;28;20029;-77
2023/02/19 14:04:50;;;;;;;5.70;1.00;;;;;;;;;;5073153;28;20135;-75
2023/02/19 14:07:16;;;;;;;9.30;0.98;;;;;;;;;;5071204;28;20021;-78
2023/02/19 14:09:45;;;;;;;2.58;0.80;;;;;;;;;;5073231;28;20036;-77
2023/02/19 14:12:14;;;;;;;3.03;0.88;;;;;;;;;;5073138;28;20081;-77
2023/02/19 14:14:55;;;;;;;2.28;0.93;;;;;;;;;;5073558;28;20017;-78
2023/02/19 14:17:36;;;;;;;4.95;0.75;;;;;;;;;;5073311;28;20050;-77
2023/02/19 14:20:03;;;;;;;5.80;1.27;;;;;;;;;;5073557;28;20028;-77
2023/02/19 14:22:45;;;;;;;4.03;0.98;;;;;;;;;;5072276;28;20452;-77
2023/02/19 14:25:29;;;;;;;2.22;0.98;;;;;;;;;;5071776;28;20024;-77
2023/02/19 14:28:04;;;;;;;2.78;0.95;;;;;;;;;;5072155;28;20025;-77
2023/02/19 14:30:32;;;;;;;2.30;0.80;;;;;;;;;;5072942;28;20359;-76
2023/02/19 14:32:59;;;;;;;2.33;0.65;;;;;;;;;;5071397;28;20025;-76
2023/02/19 14:35:29;;;;;;;4.40;1.17;;;;;;;;;;5073052;28;20409;-77
2023/02/19 14:37:55;;;;;;;3.40;1.30;;;;;;;;;;5072292;28;20025;-77
2023/02/19 14:40:26;;;;;;;2.85;0.98;;;;;;;;;;5073085;28;20032;-79
2023/02/19 14:42:53;;;;;;;3.42;1.58;;;;;;;;;;5072641;28;20047;-78
2023/02/19 14:45:20;;;;;;;4.60;1.55;;;;;;;;;;5072647;28;20505;-78
2023/02/19 14:47:46;;;;;;;3.28;1.23;;;;;;;;;;5072058;28;20056;-77
2023/02/19 14:50:17;;;;;;;3.38;1.17;;;;;;;;;;5070970;28;20078;-78
2023/02/19 14:52:45;;;;;;;3.92;1.20;;;;;;;;;;5071117;28;20074;-78
2023/02/19 14:55:20;;;;;;;4.18;1.15;;;;;;;;;;5071322;28;20024;-78
2023/02/19 14:57:48;;;;;;;3.63;1.42;;;;;;;;;;5072370;28;20364;-77
2023/02/19 15:00:21;;;;;;;3.97;1.10;;;;;;;;;;5072693;28;20490;-79
2023/02/19 15:02:49;;;;;;;3.35;1.00;;;;;;;;;;5072569;28;20040;-78
2023/02/19 15:05:16;;;;;;;2.88;0.95;;;;;;;;;;5072989;28;20059;-79
2023/02/19 15:07:42;;;;;;;4.95;1.45;;;;;;;;;;5072027;28;20024;-78
2023/02/19 15:10:08;;;;;;;9.30;1.83;;;;;;;;;;5072477;28;20020;-78
2023/02/19 15:12:39;;;;;;;6.00;1.83;;;;;;;;;;5071491;28;20025;-77
2023/02/19 15:15:06;;;;;;;4.65;1.65;;;;;;;;;;5071792;28;20104;-79
2023/02/19 15:17:33;;;;;;;10.73;2.00;;;;;;;;;;5070130;28;20033;-78